Time;durP1;ratioP1;P1;durP2;ratioP2;P2;SDS_P1;SDS_P2;PMS_P1;PMS_P2;Temp;Humidity;BMP_temperature;BMP_pressure;BME280_temperature;BME280_humidity;BME280_pressure;Samples;Min_cycle;Max_cycle;Signal;HPM_P1;HPM_P2
2022/04/21 00:00:59;;;;;;;26.70;21.60;;;;;;;2.71;77.02;96224.17;107681;1270;36857;-79
2022/04/21 00:03:30;;;;;;;30.80;22.50;;;;;;;2.63;77.30;96223.10;107684;1270;33799;-79
2022/04/21 00:06:01;;;;;;;29.10;21.30;;;;;;;2.61;77.46;96221.03;107730;1270;35437;-79
2022/04/21 00:08:32;;;;;;;34.20;24.90;;;;;;;2.59;77.61;96218.66;107724;1271;32402;-79
2022/04/21 00:11:03;;;;;;;30.80;24.80;;;;;;;2.61;77.62;96220.14;107764;1268;34667;-79
2022/04/21 00:13:35;;;;;;;29.90;22.00;;;;;;;2.65;77.45;96229.30;107647;1270;40322;-79
2022/04/21 00:16:07;;;;;;;32.60;25.60;;;;;;;2.67;77.25;96227.61;107701;1270;40146;-79
2022/04/21 00:18:38;;;;;;;33.60;25.90;;;;;;;2.70;77.34;96222.33;107598;1270;34628;-79
2022/04/21 00:21:09;;;;;;;33.80;24.00;;;;;;;2.70;77.51;96221.02;107815;1268;38239;-79
2022/04/21 00:23:40;;;;;;;29.80;21.70;;;;;;;2.68;77.91;96221.79;107757;1270;31505;-79
2022/04/21 00:26:13;;;;;;;33.30;23.50;;;;;;;2.67;78.10;96225.48;107688;1271;38733;-79
2022/04/21 00:28:43;;;;;;;32.00;22.70;;;;;;;2.65;78.22;96222.97;107738;1271;34379;-76
2022/04/21 00:31:14;;;;;;;31.00;22.60;;;;;;;2.64;78.68;96223.53;107701;1270;36085;-78
2022/04/21 00:33:45;;;;;;;31.10;23.30;;;;;;;2.67;78.60;96224.83;107693;1270;36491;-78
2022/04/21 00:36:15;;;;;;;27.40;22.50;;;;;;;2.71;78.67;96226.80;107733;1271;46589;-79
2022/04/21 00:38:46;;;;;;;29.90;20.80;;;;;;;2.75;78.48;96226.02;107637;1270;34487;-79
2022/04/21 00:41:17;;;;;;;24.50;20.70;;;;;;;2.74;78.54;96225.11;107670;1270;33322;-79
2022/04/21 00:43:48;;;;;;;26.20;21.20;;;;;;;2.71;78.40;96231.71;107684;1271;37379;-79
2022/04/21 00:46:22;;;;;;;31.20;23.40;;;;;;;2.69;78.70;96235.30;107633;1270;33669;-78
2022/04/21 00:48:53;;;;;;;30.60;23.40;;;;;;;2.67;78.72;96236.13;107724;1270;39031;-79
2022/04/21 00:51:25;;;;;;;29.90;19.60;;;;;;;2.68;78.90;96230.53;107685;1271;38534;-79
2022/04/21 00:53:56;;;;;;;27.80;21.60;;;;;;;2.69;79.08;96226.61;107742;1270;32467;-79
2022/04/21 00:56:27;;;;;;;38.30;26.90;;;;;;;2.66;79.04;96231.16;107723;1270;32544;-79
2022/04/21 00:59:01;;;;;;;33.60;27.90;;;;;;;2.62;79.04;96235.97;107721;1270;35022;-79
2022/04/21 01:04:22;;;;;;;33.40;25.10;;;;;;;2.60;79.50;96233.58;107745;1268;32950;-79
2022/04/21 01:06:54;;;;;;;32.10;24.20;;;;;;;2.63;79.56;96232.45;107623;1268;34072;-79
2022/04/21 01:09:25;;;;;;;33.20;25.50;;;;;;;2.63;79.70;96235.67;107736;1270;34308;-79
2022/04/21 01:11:56;;;;;;;37.20;26.40;;;;;;;2.63;79.57;96235.55;107671;1271;33669;-79
2022/04/21 01:14:27;;;;;;;36.70;24.60;;;;;;;2.65;79.37;96233.02;107642;1270;38948;-79
2022/04/21 01:17:01;;;;;;;32.30;22.50;;;;;;;2.67;79.03;96237.20;107675;1270;32673;-79
2022/04/21 01:19:32;;;;;;;31.30;25.20;;;;;;;2.69;78.84;96239.54;107648;1270;31793;-79
2022/04/21 01:22:03;;;;;;;38.10;27.10;;;;;;;2.68;78.81;96242.98;107619;1270;34693;-79
2022/04/21 01:24:34;;;;;;;33.10;23.00;;;;;;;2.67;78.75;96242.22;107766;1269;35773;-79
2022/04/21 01:27:05;;;;;;;32.10;23.50;;;;;;;2.64;78.78;96240.39;107685;1268;33769;-79
2022/04/21 01:29:36;;;;;;;31.50;23.00;;;;;;;2.61;79.39;96237.20;107747;1269;31931;-79
2022/04/21 01:32:08;;;;;;;31.30;20.10;;;;;;;2.57;79.79;96235.69;107767;1271;36463;-79
2022/04/21 01:34:40;;;;;;;32.20;24.20;;;;;;;2.55;80.00;96234.66;107723;1270;39273;-79
2022/04/21 01:42:48;;;;;;;30.20;23.10;;;;;;;2.60;79.91;96233.52;107715;1271;34663;-79
2022/04/21 01:45:19;;;;;;;23.60;18.60;;;;;;;2.63;79.69;96236.08;107652;1270;35037;-79
2022/04/21 01:47:50;;;;;;;27.70;21.20;;;;;;;2.64;80.14;96235.72;107689;1270;35236;-79
2022/04/21 01:50:21;;;;;;;29.10;20.90;;;;;;;2.63;80.19;96225.40;107690;1271;34264;-79
2022/04/21 01:52:52;;;;;;;31.60;22.80;;;;;;;2.62;80.63;96220.16;107734;1268;32055;-79
2022/04/21 01:55:23;;;;;;;30.20;20.50;;;;;;;2.64;80.80;96218.25;107650;1270;33612;-79
2022/04/21 01:57:54;;;;;;;36.10;24.00;;;;;;;2.66;80.67;96214.66;107721;1270;32908;-79
2022/04/21 02:00:26;;;;;;;34.60;24.90;;;;;;;2.67;80.49;96209.24;107709;1270;32792;-79
2022/04/21 02:02:56;;;;;;;32.10;21.90;;;;;;;2.68;80.22;96208.91;107629;1270;34290;-79
2022/04/21 02:05:27;;;;;;;32.70;24.30;;;;;;;2.70;80.19;96209.40;107585;1270;37473;-79
2022/04/21 02:08:00;;;;;;;42.00;27.10;;;;;;;2.70;80.08;96209.36;107690;1269;37584;-79
2022/04/21 02:10:30;;;;;;;37.20;26.20;;;;;;;2.70;79.98;96210.41;107735;1271;35588;-79
2022/04/21 02:13:01;;;;;;;34.70;25.00;;;;;;;2.70;79.63;96211.02;107599;1270;37084;-79
2022/04/21 02:15:32;;;;;;;32.50;24.10;;;;;;;2.67;79.43;96217.95;107702;1271;33129;-79
2022/04/21 02:18:03;;;;;;;31.80;24.00;;;;;;;2.66;79.56;96218.90;107671;1269;39357;-79
2022/04/21 02:20:34;;;;;;;33.40;24.40;;;;;;;2.65;79.37;96220.36;107669;1270;36763;-79
2022/04/21 02:23:05;;;;;;;31.20;24.50;;;;;;;2.63;79.25;96220.53;107658;1268;55920;-79
2022/04/21 02:25:36;;;;;;;33.30;24.80;;;;;;;2.61;79.30;96213.74;107626;1270;35304;-79
2022/04/21 02:28:07;;;;;;;35.30;25.90;;;;;;;2.58;79.44;96214.91;107658;1270;39679;-79
2022/04/21 02:30:38;;;;;;;34.60;25.30;;;;;;;2.53;79.45;96217.82;107711;1270;50898;-80
2022/04/21 02:33:09;;;;;;;34.90;26.60;;;;;;;2.49;79.82;96218.32;107692;1270;43061;-79
2022/04/21 02:35:40;;;;;;;35.50;26.60;;;;;;;2.47;79.61;96214.98;107779;1270;33394;-79
2022/04/21 02:38:11;;;;;;;34.70;25.60;;;;;;;2.47;79.54;96217.09;107764;1271;33256;-79
2022/04/21 02:40:43;;;;;;;38.00;26.40;;;;;;;2.50;79.81;96220.48;107667;1270;36676;-79
2022/04/21 02:43:13;;;;;;;37.20;26.10;;;;;;;2.52;79.69;96220.49;107776;1271;36315;-79
2022/04/21 02:45:45;;;;;;;35.00;25.80;;;;;;;2.54;79.87;96219.50;107659;1271;35710;-78
2022/04/21 02:48:17;;;;;;;34.20;25.70;;;;;;;2.59;79.78;96220.69;107676;1270;34287;-78
2022/04/21 02:50:51;;;;;;;34.60;25.70;;;;;;;2.62;80.26;96226.39;107594;1271;32781;-79
2022/04/21 02:57:19;;;;;;;34.40;26.00;;;;;;;2.61;80.04;96223.76;107686;1270;32056;-79
2022/04/21 02:59:06;;;;;;;37.90;27.10;;;;;;;2.62;79.48;96194.77;107566;1270;36646;-79
2022/04/21 03:01:37;;;;;;;34.80;24.30;;;;;;;2.58;79.43;96189.64;107667;1270;35623;-79
2022/04/21 03:04:08;;;;;;;34.70;25.10;;;;;;;2.49;79.52;96196.34;107686;1270;33572;-79
2022/04/21 03:06:39;;;;;;;31.80;23.90;;;;;;;2.41;79.77;96202.18;107785;1271;32431;-79
2022/04/21 03:09:10;;;;;;;29.70;21.80;;;;;;;2.38;79.89;96197.10;107730;1270;33533;-79
2022/04/21 03:11:40;;;;;;;26.10;20.10;;;;;;;2.44;80.06;96187.15;107721;1271;39861;-79
2022/04/21 03:14:11;;;;;;;30.60;23.70;;;;;;;2.44;80.13;96181.30;107608;1270;34607;-79
2022/04/21 03:16:42;;;;;;;30.80;22.20;;;;;;;2.46;79.92;96179.77;107796;1271;39140;-79
2022/04/21 03:19:13;;;;;;;29.60;23.40;;;;;;;2.46;79.71;96188.02;107775;1271;31818;-79
2022/04/21 03:24:32;;;;;;;29.40;22.70;;;;;;;2.55;79.89;96189.95;107630;1270;37580;-79
2022/04/21 03:27:04;;;;;;;32.70;24.10;;;;;;;2.59;79.70;96187.19;107688;1271;34001;-79
2022/04/21 03:29:37;;;;;;;33.60;22.90;;;;;;;2.62;79.70;96183.56;107680;1270;36254;-79
2022/04/21 03:32:13;;;;;;;32.40;23.70;;;;;;;2.65;79.66;96181.56;107619;1271;35776;-79
2022/04/21 03:34:45;;;;;;;31.50;24.60;;;;;;;2.65;79.18;96183.60;107638;1270;33794;-77
2022/04/21 03:37:18;;;;;;;32.70;22.90;;;;;;;2.65;79.40;96187.54;107718;1270;50682;-79
2022/04/21 03:39:49;;;;;;;33.40;23.10;;;;;;;2.68;79.34;96186.61;107666;1271;34698;-79
2022/04/21 03:42:23;;;;;;;30.40;22.80;;;;;;;2.71;79.22;96185.02;107719;1268;37133;-79
2022/04/21 03:44:55;;;;;;;33.70;23.70;;;;;;;2.72;79.25;96188.27;107667;1270;33806;-79
2022/04/21 03:47:26;;;;;;;31.40;23.40;;;;;;;2.74;79.07;96191.65;107696;1271;35414;-79
2022/04/21 03:49:57;;;;;;;33.20;23.50;;;;;;;2.76;79.11;96194.66;107669;1270;35220;-80
2022/04/21 03:52:28;;;;;;;32.10;23.30;;;;;;;2.81;79.09;96200.86;107672;1270;34852;-79
2022/04/21 03:54:58;;;;;;;33.60;23.00;;;;;;;2.84;78.82;96203.34;107707;1268;34280;-79
2022/04/21 03:57:29;;;;;;;30.00;21.10;;;;;;;2.86;78.97;96205.98;107725;1271;34423;-79
2022/04/21 04:00:00;;;;;;;29.90;21.70;;;;;;;2.88;78.85;96210.68;107671;1269;38043;-79
2022/04/21 04:02:31;;;;;;;34.20;23.80;;;;;;;2.88;78.90;96213.92;107590;1271;49338;-79
2022/04/21 04:05:02;;;;;;;32.20;21.10;;;;;;;2.90;78.83;96218.36;107618;1271;34986;-79
2022/04/21 04:13:06;;;;;;;27.20;20.40;;;;;;;2.90;78.41;96201.54;107642;1270;38604;-79
2022/04/21 04:15:37;;;;;;;28.10;20.50;;;;;;;2.90;78.63;96201.33;107689;1270;36124;-79
2022/04/21 04:18:08;;;;;;;29.30;21.70;;;;;;;2.90;78.57;96203.68;107708;1271;34399;-79
2022/04/21 04:20:39;;;;;;;29.00;21.40;;;;;;;2.93;78.40;96205.77;107666;1271;34298;-79
2022/04/21 04:23:10;;;;;;;28.10;21.80;;;;;;;2.97;78.31;96211.61;107762;1271;36876;-79
2022/04/21 04:25:41;;;;;;;31.30;22.00;;;;;;;2.99;78.35;96210.48;107709;1271;56212;-79
2022/04/21 04:28:13;;;;;;;26.20;19.70;;;;;;;3.03;78.26;96209.02;107742;1268;32034;-79
2022/04/21 04:30:44;;;;;;;26.70;20.50;;;;;;;3.07;78.14;96204.13;107789;1271;34231;-79
2022/04/21 04:33:16;;;;;;;26.50;19.90;;;;;;;3.09;78.00;96209.63;107657;1271;36401;-78
2022/04/21 04:35:47;;;;;;;29.70;21.60;;;;;;;3.14;77.95;96206.66;107765;1268;52041;-79
2022/04/21 04:38:18;;;;;;;30.80;21.50;;;;;;;3.20;77.94;96204.38;107739;1271;35819;-79
2022/04/21 04:40:49;;;;;;;28.40;19.80;;;;;;;3.27;77.85;96204.12;107730;1268;36393;-79
2022/04/21 04:43:22;;;;;;;26.40;20.40;;;;;;;3.33;77.56;96206.48;107649;1270;37009;-78
2022/04/21 04:48:41;;;;;;;26.50;19.80;;;;;;;3.43;77.11;96209.36;107752;1268;51268;-79
2022/04/21 04:51:12;;;;;;;24.60;19.30;;;;;;;3.50;76.81;96211.90;107708;1271;35336;-79
2022/04/21 04:53:43;;;;;;;30.70;21.80;;;;;;;3.61;76.79;96203.60;107821;1268;36241;-79
2022/04/21 04:56:14;;;;;;;26.50;20.50;;;;;;;3.71;76.62;96203.94;107795;1268;35147;-79
2022/04/21 04:58:46;;;;;;;26.20;20.60;;;;;;;3.79;76.57;96202.60;107681;1268;40194;-77
2022/04/21 05:01:26;;;;;;;26.30;19.70;;;;;;;3.82;76.26;96204.70;107696;1271;36959;-79
2022/04/21 05:04:02;;;;;;;25.50;18.90;;;;;;;3.86;75.94;96202.90;107759;1268;43218;-79
2022/04/21 05:06:36;;;;;;;24.30;19.10;;;;;;;3.88;75.67;96205.13;107747;1268;36995;-79
2022/04/21 05:09:09;;;;;;;23.40;16.40;;;;;;;3.88;75.52;96203.60;107704;1268;39333;-79
2022/04/21 05:11:41;;;;;;;29.10;19.80;;;;;;;3.84;75.31;96205.56;107761;1271;35306;-79
2022/04/21 05:14:13;;;;;;;27.70;19.30;;;;;;;3.79;75.37;96213.73;107775;1268;35913;-79
2022/04/21 05:16:44;;;;;;;27.10;19.50;;;;;;;3.74;75.19;96215.50;107801;1268;34340;-79
2022/04/21 05:19:19;;;;;;;26.10;17.90;;;;;;;3.70;75.00;96218.08;107749;1271;31301;-79
2022/04/21 05:21:51;;;;;;;27.80;19.60;;;;;;;3.63;75.03;96219.39;107589;1271;35782;-79
2022/04/21 05:24:24;;;;;;;28.10;19.10;;;;;;;3.60;75.16;96218.63;107713;1271;34827;-79
2022/04/21 05:26:56;;;;;;;24.00;19.10;;;;;;;3.59;75.32;96219.46;107652;1268;33498;-79
2022/04/21 05:32:19;;;;;;;23.50;17.70;;;;;;;3.53;75.25;96217.20;107658;1270;35319;-79
2022/04/21 05:34:51;;;;;;;26.10;17.00;;;;;;;3.54;75.35;96215.85;107688;1271;34739;-79
2022/04/21 05:37:23;;;;;;;25.20;18.00;;;;;;;3.55;75.42;96211.50;107646;1271;36592;-79
2022/04/21 05:39:55;;;;;;;28.00;19.00;;;;;;;3.59;75.43;96212.86;107585;1271;40031;-79
2022/04/21 05:42:27;;;;;;;26.00;19.50;;;;;;;3.66;75.54;96211.85;107660;1270;41087;-80
2022/04/21 05:45:00;;;;;;;23.30;18.10;;;;;;;3.76;75.75;96213.53;107618;1271;35594;-79
2022/04/21 05:47:33;;;;;;;29.70;20.10;;;;;;;3.85;75.58;96212.02;107740;1271;35143;-79
2022/04/21 05:50:05;;;;;;;29.40;20.00;;;;;;;3.92;75.41;96209.88;107515;1271;31930;-79
2022/04/21 05:52:39;;;;;;;21.70;16.70;;;;;;;3.96;75.04;96208.59;107711;1270;40035;-79
2022/04/21 05:55:15;;;;;;;29.00;21.30;;;;;;;4.01;74.99;96211.35;107610;1271;35016;-79
2022/04/21 05:57:46;;;;;;;24.10;18.70;;;;;;;4.06;74.93;96210.30;107708;1271;40329;-79
2022/04/21 06:00:19;;;;;;;26.20;18.90;;;;;;;4.11;74.69;96214.04;107630;1269;35470;-78
2022/04/21 06:02:50;;;;;;;28.20;18.80;;;;;;;4.12;74.34;96215.31;107620;1271;48683;-79
2022/04/21 06:05:21;;;;;;;23.20;18.10;;;;;;;4.11;73.97;96219.23;107604;1271;34899;-79
2022/04/21 06:07:53;;;;;;;22.80;16.00;;;;;;;4.11;73.90;96221.66;107549;1271;35374;-80
2022/04/21 06:10:24;;;;;;;23.60;18.30;;;;;;;4.09;73.83;96217.44;107633;1271;34761;-79
2022/04/21 06:12:56;;;;;;;25.60;16.60;;;;;;;4.08;73.67;96219.23;107700;1271;35258;-79
2022/04/21 06:15:27;;;;;;;23.80;18.40;;;;;;;4.10;73.79;96217.18;107536;1271;60387;-80
2022/04/21 06:17:58;;;;;;;24.30;17.90;;;;;;;4.13;73.78;96221.77;107683;1271;33252;-79
2022/04/21 06:20:29;;;;;;;22.80;16.00;;;;;;;4.17;73.87;96221.85;107611;1271;34390;-79
2022/04/21 06:23:00;;;;;;;30.70;20.00;;;;;;;4.22;73.84;96221.70;107644;1271;31402;-79
2022/04/21 06:25:31;;;;;;;25.60;18.90;;;;;;;4.28;74.02;96221.83;107583;1271;34647;-79
2022/04/21 06:28:03;;;;;;;23.70;18.00;;;;;;;4.35;73.91;96221.89;107634;1271;39146;-79
2022/04/21 06:30:34;;;;;;;26.40;18.90;;;;;;;4.42;73.91;96223.27;107619;1271;34669;-79
2022/04/21 06:33:05;;;;;;;23.00;18.40;;;;;;;4.49;73.89;96221.11;107561;1271;35922;-79
2022/04/21 06:35:36;;;;;;;25.40;19.40;;;;;;;4.57;73.69;96221.36;107694;1271;34589;-79
2022/04/21 06:38:07;;;;;;;25.40;19.10;;;;;;;4.62;73.66;96218.77;107633;1271;33958;-79
2022/04/21 06:40:38;;;;;;;24.90;17.90;;;;;;;4.67;73.45;96221.36;107646;1268;34897;-80
2022/04/21 06:48:44;;;;;;;26.10;18.90;;;;;;;4.75;72.87;96220.51;107735;1268;33683;-80
2022/04/21 06:51:16;;;;;;;24.00;18.30;;;;;;;4.80;72.93;96217.30;107704;1271;36496;-76
2022/04/21 06:53:48;;;;;;;22.10;15.90;;;;;;;4.83;72.61;96218.79;107642;1270;33640;-78
2022/04/21 06:56:18;;;;;;;25.50;18.80;;;;;;;4.86;72.47;96221.33;107640;1271;44666;-79
2022/04/21 06:58:50;;;;;;;25.70;19.20;;;;;;;4.90;72.70;96219.31;107626;1268;35153;-79
2022/04/21 07:01:21;;;;;;;26.40;18.60;;;;;;;4.96;72.25;96220.36;107607;1271;35862;-79
2022/04/21 07:03:52;;;;;;;26.00;19.40;;;;;;;5.04;72.48;96221.09;107656;1271;34687;-79
2022/04/21 07:06:23;;;;;;;24.90;18.10;;;;;;;5.14;72.08;96220.16;107671;1271;32890;-79
2022/04/21 07:08:54;;;;;;;29.10;18.90;;;;;;;5.22;72.30;96222.48;107622;1271;59374;-79
2022/04/21 07:11:26;;;;;;;22.60;18.90;;;;;;;5.26;71.63;96223.09;107671;1271;31641;-79
2022/04/21 07:13:57;;;;;;;22.90;19.20;;;;;;;5.33;71.77;96223.97;107568;1271;34803;-79
2022/04/21 07:16:28;;;;;;;23.10;19.20;;;;;;;5.39;71.02;96227.16;107667;1269;34186;-79
2022/04/21 07:18:59;;;;;;;23.50;18.30;;;;;;;5.47;70.99;96227.05;107689;1268;42876;-79
2022/04/21 07:21:30;;;;;;;22.30;16.90;;;;;;;5.64;71.06;96228.09;107639;1271;37095;-79
2022/04/21 07:24:01;;;;;;;20.00;17.00;;;;;;;5.85;70.58;96228.77;107694;1269;33316;-79
2022/04/21 07:26:32;;;;;;;21.20;17.30;;;;;;;6.00;70.04;96228.31;107567;1271;33625;-79
2022/04/21 07:29:04;;;;;;;17.30;13.20;;;;;;;6.17;70.14;96231.01;107621;1268;33021;-79
2022/04/21 07:31:35;;;;;;;24.00;20.40;;;;;;;6.32;68.42;96227.67;107713;1268;36206;-79
2022/04/21 07:34:06;;;;;;;16.40;14.10;;;;;;;6.44;68.40;96231.59;107586;1268;40937;-79
2022/04/21 07:36:37;;;;;;;21.50;17.50;;;;;;;6.59;67.50;96229.66;107623;1271;37067;-79
2022/04/21 07:39:07;;;;;;;20.60;15.10;;;;;;;6.69;67.38;96229.77;107554;1271;41131;-79
2022/04/21 07:41:38;;;;;;;16.60;13.30;;;;;;;6.82;67.29;96227.84;107627;1271;35221;-79
2022/04/21 07:44:09;;;;;;;20.60;15.30;;;;;;;6.94;66.58;96225.48;107652;1271;37941;-79
2022/04/21 07:46:40;;;;;;;18.50;15.50;;;;;;;7.09;67.02;96229.89;107751;1271;37356;-79
2022/04/21 07:54:44;;;;;;;18.40;14.70;;;;;;;7.28;63.26;96231.61;107727;1271;34244;-79
2022/04/21 07:57:15;;;;;;;15.10;11.60;;;;;;;7.30;62.96;96232.39;107632;1271;40968;-78
2022/04/21 07:59:47;;;;;;;15.60;13.10;;;;;;;7.28;62.04;96231.13;107680;1268;33776;-78
2022/04/21 08:02:18;;;;;;;16.70;14.10;;;;;;;7.38;61.96;96233.66;107670;1271;32255;-78
2022/04/21 08:04:49;;;;;;;16.60;14.80;;;;;;;7.48;62.05;96234.85;107659;1270;35986;-79
2022/04/21 08:07:20;;;;;;;19.00;15.00;;;;;;;7.65;62.77;96243.30;107665;1270;32029;-79
2022/04/21 08:09:51;;;;;;;18.60;14.70;;;;;;;7.77;61.76;96242.65;107709;1268;32310;-78
2022/04/21 08:12:22;;;;;;;16.90;15.10;;;;;;;7.89;61.92;96237.10;107607;1268;41953;-79
2022/04/21 08:14:54;;;;;;;18.50;15.40;;;;;;;8.10;62.05;96235.44;107685;1268;34494;-78
2022/04/21 08:17:24;;;;;;;16.80;13.90;;;;;;;8.21;60.18;96232.74;107691;1268;33994;-79
2022/04/21 08:19:55;;;;;;;15.90;11.70;;;;;;;8.27;60.38;96232.18;107563;1271;33913;-79
2022/04/21 08:22:27;;;;;;;16.80;13.80;;;;;;;8.24;58.35;96234.73;107611;1270;39853;-78
2022/04/21 08:33:23;;;;;;;17.00;13.20;;;;;;;8.22;58.84;96242.94;107590;1270;33469;-78
2022/04/21 08:35:58;;;;;;;19.70;15.60;;;;;;;8.23;58.20;96235.74;107630;1270;34286;-79
2022/04/21 08:38:30;;;;;;;14.90;13.20;;;;;;;8.26;58.30;96230.17;107589;1270;40439;-78
2022/04/21 08:41:05;;;;;;;16.00;13.30;;;;;;;8.24;57.74;96224.96;107597;1271;33831;-78
2022/04/21 08:43:37;;;;;;;18.90;14.90;;;;;;;8.25;57.83;96226.64;107596;1270;37095;-79
2022/04/21 08:46:13;;;;;;;17.50;15.40;;;;;;;8.39;58.93;96224.37;107699;1271;33920;-79
2022/04/21 08:48:47;;;;;;;17.00;12.70;;;;;;;8.65;58.13;96225.86;107808;1271;42262;-78
2022/04/21 08:51:18;;;;;;;20.90;16.20;;;;;;;8.69;57.16;96228.58;107675;1271;37197;-78
2022/04/21 08:53:50;;;;;;;17.30;13.70;;;;;;;8.79;57.60;96229.45;107636;1271;35959;-78
2022/04/21 08:56:22;;;;;;;17.50;14.40;;;;;;;8.84;56.67;96226.61;107699;1268;38899;-79
2022/04/21 08:58:52;;;;;;;17.20;15.10;;;;;;;8.87;56.44;96226.98;107605;1269;35808;-78
2022/04/21 09:01:24;;;;;;;17.70;14.30;;;;;;;8.90;56.31;96226.15;107692;1268;35729;-78
2022/04/21 09:03:55;;;;;;;19.80;16.10;;;;;;;8.98;55.73;96220.86;107631;1270;34493;-79
2022/04/21 09:06:27;;;;;;;17.80;15.60;;;;;;;9.11;55.90;96219.95;107707;1268;32007;-79
2022/04/21 09:09:16;;;;;;;17.30;15.00;;;;;;;9.31;55.59;96214.53;107681;1271;35135;-78
2022/04/21 09:11:50;;;;;;;16.70;14.00;;;;;;;9.52;53.92;96212.78;107722;1268;32779;-78
2022/04/21 09:14:21;;;;;;;17.60;14.90;;;;;;;9.40;53.57;96216.20;107700;1268;32457;-78
2022/04/21 09:16:52;;;;;;;16.60;13.10;;;;;;;9.40;54.26;96214.61;107683;1268;34897;-78
2022/04/21 09:19:25;;;;;;;19.20;16.60;;;;;;;9.49;53.92;96213.52;107635;1270;38770;-78
2022/04/21 09:21:56;;;;;;;19.20;16.70;;;;;;;9.60;54.05;96210.80;107670;1268;35433;-78
2022/04/21 09:24:28;;;;;;;17.90;15.20;;;;;;;9.76;54.56;96207.98;107712;1268;38784;-78
2022/04/21 09:27:00;;;;;;;18.90;16.50;;;;;;;10.00;53.65;96208.55;107649;1268;34533;-78
2022/04/21 09:29:31;;;;;;;17.80;13.90;;;;;;;10.20;53.35;96204.17;107703;1268;37195;-79
2022/04/21 09:32:03;;;;;;;18.40;16.00;;;;;;;10.25;51.92;96200.57;107654;1268;36532;-78
2022/04/21 09:34:36;;;;;;;13.80;12.20;;;;;;;10.12;52.49;96197.58;107640;1270;36905;-79
2022/04/21 09:37:10;;;;;;;17.80;15.90;;;;;;;10.20;52.11;96197.06;107665;1270;33614;-79
2022/04/21 09:39:42;;;;;;;16.50;14.30;;;;;;;10.20;52.08;96201.52;107606;1270;33531;-79
2022/04/21 09:42:13;;;;;;;18.00;15.40;;;;;;;10.01;51.83;96200.48;107727;1268;37772;-79
2022/04/21 09:47:33;;;;;;;16.40;14.60;;;;;;;9.95;52.44;96196.63;107639;1270;38041;-79
2022/04/21 09:50:13;;;;;;;15.30;12.70;;;;;;;10.00;52.42;96196.36;107642;1271;36253;-79
2022/04/21 09:52:50;;;;;;;17.70;15.60;;;;;;;10.18;51.86;96190.84;107708;1271;34791;-79
2022/04/21 09:55:27;;;;;;;17.60;14.80;;;;;;;10.27;51.92;96193.98;107610;1270;34061;-79
2022/04/21 09:58:08;;;;;;;14.90;13.30;;;;;;;10.35;51.21;96190.09;107654;1271;35956;-79
2022/04/21 10:00:41;;;;;;;15.20;13.60;;;;;;;10.35;51.48;96188.19;107685;1268;34262;-79
2022/04/21 10:03:13;;;;;;;15.60;12.90;;;;;;;10.27;50.50;96189.09;107635;1270;35210;-80
2022/04/21 10:05:43;;;;;;;13.70;10.40;;;;;;;10.16;51.30;96182.98;107590;1270;49823;-79
2022/04/21 10:08:15;;;;;;;13.30;11.50;;;;;;;9.99;51.05;96185.94;107724;1269;32885;-80
2022/04/21 10:10:47;;;;;;;14.90;12.10;;;;;;;9.92;52.03;96189.20;107594;1270;38377;-79
2022/04/21 10:13:18;;;;;;;15.30;12.60;;;;;;;10.09;52.06;96191.36;107490;1271;58004;-79
2022/04/21 10:15:50;;;;;;;11.00;8.80;;;;;;;10.16;51.20;96186.52;107622;1270;36127;-79
2022/04/21 10:18:22;;;;;;;14.30;11.20;;;;;;;9.98;51.32;96184.99;107577;1268;42554;-79
2022/04/21 10:20:56;;;;;;;16.10;14.40;;;;;;;9.76;52.01;96195.70;107672;1271;40878;-79
2022/04/21 10:23:28;;;;;;;16.70;11.80;;;;;;;9.80;53.18;96197.34;107614;1270;36945;-79
2022/04/21 10:26:03;;;;;;;14.70;10.80;;;;;;;9.83;52.70;96193.70;107596;1268;39516;-79
2022/04/21 10:28:48;;;;;;;14.80;13.20;;;;;;;9.78;52.88;96201.08;107731;1268;33379;-79
2022/04/21 10:31:33;;;;;;;15.50;13.80;;;;;;;10.03;53.99;96197.70;107641;1270;35639;-79
2022/04/21 10:34:06;;;;;;;15.80;12.50;;;;;;;10.42;54.71;96192.92;107653;1270;34920;-79
2022/04/21 10:36:47;;;;;;;18.90;13.70;;;;;;;10.79;53.87;96198.46;107671;1268;36290;-80
2022/04/21 10:39:27;;;;;;;15.20;13.40;;;;;;;10.96;53.05;96197.98;107634;1270;50107;-79
2022/04/21 10:42:11;;;;;;;;;;;;;;;11.23;53.64;96197.46;107658;1268;37611;-79
2022/04/21 10:44:47;;;;;;;17.10;14.40;;;;;;;11.42;52.53;96194.39;107740;1268;36029;-80
2022/04/21 10:47:36;;;;;;;15.60;13.40;;;;;;;11.53;53.32;96196.89;107716;1271;32288;-79
2022/04/21 10:50:19;;;;;;;15.40;13.80;;;;;;;11.69;52.90;96197.70;107755;1268;35482;-79
2022/04/21 10:58:51;;;;;;;13.40;12.10;;;;;;;11.43;51.80;96190.11;107703;1268;34377;-80
2022/04/21 11:01:38;;;;;;;12.00;9.90;;;;;;;11.44;52.23;96186.34;107618;1270;38078;-80
2022/04/21 11:04:29;;;;;;;13.00;11.60;;;;;;;11.27;52.01;96186.91;107704;1270;34724;-80
2022/04/21 11:07:12;;;;;;;12.30;10.80;;;;;;;11.37;51.89;96189.27;107638;1270;36489;-80
2022/04/21 11:09:50;;;;;;;13.30;11.00;;;;;;;11.18;51.21;96184.56;107660;1271;43282;-80
2022/04/21 11:12:44;;;;;;;12.40;11.10;;;;;;;11.30;52.30;96192.58;107718;1268;33445;-79
2022/04/21 11:15:40;;;;;;;13.10;11.40;;;;;;;11.54;52.39;96193.10;107794;1268;33918;-80
2022/04/21 11:18:12;;;;;;;15.10;13.20;;;;;;;11.62;52.14;96191.73;107613;1268;205708;-80
2022/04/21 11:20:44;;;;;;;14.10;11.90;;;;;;;11.52;51.66;96186.96;107687;1270;33346;-80
2022/04/21 11:23:24;;;;;;;12.90;11.40;;;;;;;11.54;51.16;96176.48;107732;1270;35055;-80
2022/04/21 11:26:07;;;;;;;11.30;10.10;;;;;;;11.50;51.74;96176.13;107589;1270;37980;-79
2022/04/21 11:28:42;;;;;;;13.70;11.50;;;;;;;11.49;50.92;96178.48;107691;1268;37059;-80
2022/04/21 11:31:14;;;;;;;11.70;8.60;;;;;;;11.43;50.87;96173.98;107754;1268;39472;-80
2022/04/21 11:33:47;;;;;;;9.70;8.40;;;;;;;11.28;50.02;96173.87;107700;1271;37386;-80
2022/04/21 11:36:18;;;;;;;11.90;9.60;;;;;;;11.18;51.01;96174.52;107625;1270;37073;-80
2022/04/21 11:38:52;;;;;;;11.20;9.30;;;;;;;11.36;51.17;96175.13;107693;1268;32738;-80
2022/04/21 11:41:23;;;;;;;10.20;9.10;;;;;;;11.34;49.94;96173.14;107595;1268;35907;-80
2022/04/21 11:43:55;;;;;;;11.70;9.50;;;;;;;11.41;51.50;96173.05;107692;1271;34028;-80
2022/04/21 11:46:26;;;;;;;12.30;10.20;;;;;;;11.62;51.03;96174.46;107680;1270;32880;-80
2022/04/21 11:49:02;;;;;;;13.50;11.70;;;;;;;11.61;49.55;96177.58;107732;1268;34886;-80
2022/04/21 11:51:32;;;;;;;11.80;10.30;;;;;;;11.43;50.00;96171.05;107617;1270;49523;-80
2022/04/21 11:54:08;;;;;;;13.70;10.90;;;;;;;11.39;50.61;96166.73;107654;1271;40462;-80
2022/04/21 11:56:40;;;;;;;13.20;11.30;;;;;;;11.70;51.51;96161.91;107599;1270;41299;-80
2022/04/21 11:59:13;;;;;;;11.70;10.50;;;;;;;11.98;50.81;96166.77;107791;1270;33288;-80
2022/04/21 12:07:27;;;;;;;12.70;11.30;;;;;;;12.31;49.61;96163.67;107696;1268;36744;-80
2022/04/21 12:09:59;;;;;;;13.60;10.70;;;;;;;12.36;49.74;96159.36;107633;1270;40482;-80
2022/04/21 12:12:30;;;;;;;10.10;8.70;;;;;;;12.53;50.38;96149.67;107657;1270;32805;-80
2022/04/21 12:15:01;;;;;;;13.60;11.10;;;;;;;12.75;49.01;96159.41;107569;1270;34964;-80
2022/04/21 12:17:35;;;;;;;12.00;10.50;;;;;;;12.63;48.08;96155.89;107727;1268;39343;-80
2022/04/21 12:20:08;;;;;;;13.00;10.80;;;;;;;12.45;48.74;96156.59;107640;1270;50073;-80
2022/04/21 12:22:42;;;;;;;10.70;9.60;;;;;;;12.57;49.86;96150.59;107649;1270;35582;-81
2022/04/21 12:25:15;;;;;;;12.90;10.20;;;;;;;12.68;49.59;96152.52;107687;1270;33989;-80
2022/04/21 12:27:46;;;;;;;12.80;10.90;;;;;;;12.59;48.50;96153.05;107696;1270;38896;-80
2022/04/21 12:30:21;;;;;;;11.60;10.10;;;;;;;12.35;48.41;96146.91;107637;1270;38098;-79
2022/04/21 12:32:54;;;;;;;12.60;10.30;;;;;;;12.10;48.28;96152.81;107627;1270;33652;-80
2022/04/21 12:35:46;;;;;;;11.30;10.10;;;;;;;11.84;48.40;96151.59;107605;1270;34274;-80
2022/04/21 12:41:06;;;;;;;11.20;10.00;;;;;;;11.84;49.19;96156.48;107596;1270;34741;-80
2022/04/21 12:43:37;;;;;;;11.00;9.90;;;;;;;11.91;49.54;96153.59;107618;1270;35399;-80